createdAt,value
2023-04-06T00:01:48.248Z,9.23
2023-04-06T00:03:50.286Z,9.57
2023-04-06T00:05:52.503Z,9.43
2023-04-06T00:07:55.334Z,8.63
2023-04-06T00:09:57.169Z,9.30
2023-04-06T00:11:59.008Z,8.90
2023-04-06T00:14:01.390Z,8.70
2023-04-06T00:16:03.609Z,8.48
2023-04-06T00:18:05.588Z,8.25
2023-04-06T00:20:08.269Z,8.05
2023-04-06T00:22:10.126Z,7.97
2023-04-06T00:24:11.931Z,8.52
2023-04-06T00:26:13.755Z,7.97
2023-04-06T00:28:15.747Z,7.55
2023-04-06T00:30:17.495Z,7.03
2023-04-06T00:32:19.286Z,7.47
2023-04-06T00:34:21.578Z,7.47
2023-04-06T00:36:23.479Z,7.30
2023-04-06T00:38:25.303Z,7.22
2023-04-06T00:40:29.471Z,6.82
2023-04-06T00:42:31.374Z,7.05
2023-04-06T00:44:33.144Z,6.28
2023-04-06T00:46:35.643Z,6.50
2023-04-06T00:48:37.494Z,6.95
2023-04-06T00:50:39.381Z,5.90
2023-04-06T00:52:41.272Z,6.15
2023-04-06T00:54:44.069Z,6.57
2023-04-06T00:56:46.222Z,5.65
2023-04-06T00:58:48.237Z,5.57
2023-04-06T01:00:50.218Z,5.50
2023-04-06T01:02:52.090Z,5.60
2023-04-06T01:04:55.345Z,5.88
2023-04-06T01:06:57.247Z,5.60
2023-04-06T01:08:59.153Z,5.43
2023-04-06T01:11:02.520Z,5.47
2023-04-06T01:13:04.426Z,5.97
2023-04-06T01:15:07.582Z,5.30
2023-04-06T01:17:09.416Z,5.78
2023-04-06T01:19:12.746Z,5.15
2023-04-06T01:21:16.985Z,6.53
2023-04-06T01:23:18.904Z,5.95
2023-04-06T01:25:20.886Z,5.25
2023-04-06T01:27:22.704Z,5.43
2023-04-06T01:29:24.471Z,6.00
2023-04-06T01:31:27.372Z,4.80
2023-04-06T01:33:29.151Z,4.75
2023-04-06T01:35:31.515Z,5.18
2023-04-06T01:37:33.710Z,4.57
2023-04-06T01:39:35.486Z,5.00
2023-04-06T01:41:37.562Z,4.53
2023-04-06T01:43:39.511Z,5.28
2023-04-06T01:45:41.550Z,5.22
2023-04-06T01:47:43.335Z,4.75
2023-04-06T01:49:45.099Z,4.68
2023-04-06T01:51:46.934Z,4.70
2023-04-06T01:53:50.376Z,4.20
2023-04-06T01:55:52.145Z,4.43
2023-04-06T01:57:53.933Z,5.63
2023-04-06T01:59:55.684Z,4.50
2023-04-06T02:01:57.457Z,4.63
2023-04-06T02:03:59.344Z,4.57
2023-04-06T02:06:04.966Z,4.28
2023-04-06T02:08:09.233Z,4.35
2023-04-06T02:10:14.200Z,4.40
2023-04-06T02:12:16.248Z,5.10
2023-04-06T02:14:18.153Z,4.72
2023-04-06T02:16:19.994Z,4.80
2023-04-06T02:18:22.293Z,4.97
2023-04-06T02:20:24.098Z,4.40
2023-04-06T02:22:25.842Z,4.38
2023-04-06T02:24:27.632Z,4.72
2023-04-06T02:26:31.867Z,4.65
2023-04-06T02:28:33.673Z,4.60
2023-04-06T02:30:35.697Z,4.70
2023-04-06T02:32:37.486Z,4.32
2023-04-06T02:34:39.249Z,4.43
2023-04-06T02:36:41.241Z,4.25
2023-04-06T02:38:43.177Z,4.32
2023-04-06T02:40:44.917Z,5.22
2023-04-06T02:42:46.683Z,4.10
2023-04-06T02:44:48.463Z,3.85
2023-04-06T02:46:50.288Z,3.58
2023-04-06T02:48:52.064Z,4.20
2023-04-06T02:50:53.997Z,3.83
2023-04-06T02:52:55.730Z,3.95
2023-04-06T02:54:57.528Z,4.07
2023-04-06T02:56:59.340Z,3.55
2023-04-06T02:59:01.145Z,3.90
2023-04-06T03:01:02.966Z,4.20
2023-04-06T03:03:04.823Z,3.17
2023-04-06T03:05:06.962Z,3.30
2023-04-06T03:07:11.938Z,3.53
2023-04-06T03:09:15.257Z,3.47
2023-04-06T03:11:17.069Z,3.75
2023-04-06T03:13:18.888Z,3.20
2023-04-06T03:15:20.908Z,3.50
2023-04-06T03:17:22.786Z,3.60
2023-04-06T03:19:24.565Z,3.08
2023-04-06T03:21:26.391Z,3.10
2023-04-06T03:23:28.128Z,3.00
2023-04-06T03:25:31.237Z,3.38
2023-04-06T03:27:33.774Z,3.00
2023-04-06T03:29:35.607Z,2.80
2023-04-06T03:31:37.439Z,2.65
2023-04-06T03:33:39.204Z,2.35
2023-04-06T03:35:41.155Z,2.80
2023-04-06T03:37:45.079Z,3.10
2023-04-06T03:39:46.900Z,2.78
2023-04-06T03:41:48.852Z,3.35
2023-04-06T03:43:51.014Z,3.00
2023-04-06T03:45:55.025Z,2.90
2023-04-06T03:47:57.288Z,3.10
2023-04-06T03:49:59.093Z,3.10
2023-04-06T03:52:02.253Z,3.30
2023-04-06T03:54:04.176Z,3.78
2023-04-06T03:56:06.522Z,3.10
2023-04-06T03:58:08.320Z,3.53
2023-04-06T04:00:11.102Z,3.80
2023-04-06T04:02:12.982Z,3.50
2023-04-06T04:04:14.817Z,4.13
2023-04-06T04:06:16.576Z,3.60
2023-04-06T04:08:18.354Z,3.65
2023-04-06T04:10:20.096Z,3.95
2023-04-06T04:12:21.956Z,4.07
2023-04-06T04:14:23.726Z,3.72
2023-04-06T04:16:25.917Z,4.10
2023-04-06T04:18:27.725Z,3.95
2023-04-06T04:20:29.666Z,3.92
2023-04-06T04:22:31.495Z,4.28
2023-04-06T04:24:33.815Z,4.00
2023-04-06T04:26:35.560Z,4.03
2023-04-06T04:28:37.330Z,4.10
2023-04-06T04:30:39.204Z,3.95
2023-04-06T04:32:41.477Z,3.97
2023-04-06T04:34:43.257Z,3.95
2023-04-06T04:36:45.189Z,4.32
2023-04-06T04:38:46.991Z,4.00
2023-04-06T04:40:48.720Z,4.20
2023-04-06T04:42:52.048Z,4.32
2023-04-06T04:44:53.815Z,4.70
2023-04-06T04:46:58.094Z,4.18
2023-04-06T04:48:59.875Z,4.75
2023-04-06T04:51:01.930Z,4.85
2023-04-06T04:53:06.534Z,4.82
2023-04-06T04:55:08.681Z,4.60
2023-04-06T04:57:10.457Z,4.88
2023-04-06T04:59:12.314Z,5.15
2023-04-06T05:01:14.207Z,4.90
2023-04-06T05:03:25.283Z,5.40
2023-04-06T05:05:27.241Z,5.25
2023-04-06T05:07:29.042Z,5.65
2023-04-06T05:09:32.306Z,5.18
2023-04-06T05:11:34.341Z,5.65
2023-04-06T05:13:36.507Z,5.35
2023-04-06T05:15:39.513Z,6.13
2023-04-06T05:17:41.596Z,5.30
2023-04-06T05:19:43.453Z,5.55
2023-04-06T05:21:45.495Z,5.88
2023-04-06T05:23:47.350Z,6.47
2023-04-06T05:25:49.238Z,6.13
2023-04-06T05:27:51.527Z,6.43
2023-04-06T05:29:54.953Z,5.55
2023-04-06T05:31:58.001Z,5.93
2023-04-06T05:34:00.666Z,6.72
2023-04-06T05:36:02.762Z,6.45
2023-04-06T05:38:04.760Z,6.43
2023-04-06T05:40:07.438Z,6.47
2023-04-06T05:42:09.363Z,6.00
2023-04-06T05:44:11.329Z,6.15
2023-04-06T05:46:13.206Z,6.00
2023-04-06T05:48:14.965Z,6.18
2023-04-06T05:50:17.068Z,6.25
2023-04-06T05:52:18.838Z,6.38
2023-04-06T05:54:21.188Z,6.65
2023-04-06T05:56:23.108Z,6.13
2023-04-06T05:58:25.193Z,6.85
2023-04-06T06:00:27.480Z,6.57
2023-04-06T06:02:32.129Z,6.38
2023-04-06T06:04:33.981Z,7.05
2023-04-06T06:06:36.136Z,6.65
2023-04-06T06:08:37.971Z,6.75
2023-04-06T06:10:41.348Z,7.03
2023-04-06T06:12:43.137Z,6.70
2023-04-06T06:14:45.030Z,7.63
2023-04-06T06:16:49.954Z,6.60
2023-04-06T06:18:51.887Z,6.88
2023-04-06T06:20:53.761Z,6.47
2023-04-06T06:22:55.676Z,7.80
2023-04-06T06:24:57.554Z,7.63
2023-04-06T06:26:59.760Z,7.57
2023-04-06T06:29:01.539Z,7.63
2023-04-06T06:31:03.540Z,8.57
2023-04-06T06:33:05.434Z,6.60
2023-04-06T06:35:07.817Z,7.25
2023-04-06T06:37:09.783Z,6.70
2023-04-06T06:39:11.834Z,6.60
2023-04-06T06:41:14.287Z,5.85
2023-04-06T06:43:16.204Z,6.38
2023-04-06T06:45:18.189Z,5.53
2023-04-06T06:47:20.135Z,6.25
2023-04-06T06:49:22.009Z,6.40
2023-04-06T06:51:23.857Z,6.60
2023-04-06T06:53:25.805Z,6.47
2023-04-06T06:55:27.886Z,6.13
2023-04-06T06:57:29.745Z,5.85
2023-04-06T06:59:31.606Z,6.82
2023-04-06T07:01:35.656Z,5.65
2023-04-06T07:03:37.593Z,5.75
2023-04-06T07:05:41.430Z,6.43
2023-04-06T07:07:43.568Z,6.15
2023-04-06T07:09:45.567Z,5.25
2023-04-06T07:11:47.658Z,5.50
2023-04-06T07:13:49.557Z,5.93
2023-04-06T07:15:51.813Z,5.45
2023-04-06T07:17:55.944Z,5.70
2023-04-06T07:19:57.878Z,5.72
2023-04-06T07:22:00.420Z,5.20
2023-04-06T07:24:02.988Z,5.82
2023-04-06T07:26:04.941Z,5.15
2023-04-06T07:28:06.839Z,6.30
2023-04-06T07:30:09.405Z,4.97
2023-04-06T07:32:11.653Z,4.45
2023-04-06T07:34:13.542Z,4.75
2023-04-06T07:36:15.756Z,4.95
2023-04-06T07:38:17.711Z,4.20
2023-04-06T07:40:20.742Z,4.35
2023-04-06T07:42:22.573Z,4.85
2023-04-06T07:44:24.634Z,4.68
2023-04-06T07:46:26.614Z,4.63
2023-04-06T07:48:28.549Z,4.35
2023-04-06T07:50:30.711Z,4.07
2023-04-06T07:52:34.173Z,3.58
2023-04-06T07:54:37.098Z,3.50
2023-04-06T07:56:38.948Z,3.58
2023-04-06T07:58:40.874Z,3.38
2023-04-06T08:00:42.774Z,2.50
2023-04-06T08:02:44.784Z,2.03
2023-04-06T08:04:49.212Z,2.03
2023-04-06T08:06:51.315Z,1.73
2023-04-06T08:08:53.150Z,1.60
2023-04-06T08:10:55.004Z,1.52
2023-04-06T08:12:58.054Z,1.55
2023-04-06T08:15:00.873Z,1.40
2023-04-06T08:17:04.618Z,1.38
2023-04-06T08:19:10.632Z,1.83
2023-04-06T08:21:15.973Z,1.23
2023-04-06T08:23:17.935Z,1.73
2023-04-06T08:25:19.830Z,0.73
2023-04-06T08:27:21.818Z,0.90
2023-04-06T08:29:23.630Z,1.15
2023-04-06T08:31:26.140Z,1.75
2023-04-06T08:33:28.566Z,1.20
2023-04-06T08:35:30.787Z,1.42
2023-04-06T08:37:32.723Z,1.08
2023-04-06T08:39:35.004Z,0.85
2023-04-06T08:41:36.949Z,0.73
2023-04-06T08:43:49.767Z,1.83
2023-04-06T08:45:52.020Z,1.20
2023-04-06T08:47:57.978Z,1.13
2023-04-06T08:50:04.107Z,1.48
2023-04-06T08:52:10.458Z,1.20
2023-04-06T08:54:12.380Z,1.33
2023-04-06T08:56:15.604Z,1.20
2023-04-06T08:58:31.191Z,1.67
2023-04-06T09:00:40.929Z,1.30
2023-04-06T09:02:46.720Z,1.67
2023-04-06T09:04:51.109Z,1.58
2023-04-06T09:06:53.630Z,1.60
2023-04-06T09:08:56.282Z,1.40
2023-04-06T09:11:02.333Z,1.20
2023-04-06T09:13:06.587Z,1.52
2023-04-06T09:15:23.607Z,1.20
2023-04-06T09:17:28.914Z,1.10
2023-04-06T09:19:31.534Z,1.20
2023-04-06T09:21:34.416Z,1.63
2023-04-06T09:23:36.454Z,1.27
2023-04-06T09:25:38.670Z,1.80
2023-04-06T09:27:41.064Z,1.00
2023-04-06T09:29:44.871Z,1.40
2023-04-06T09:31:47.026Z,1.67
2023-04-06T09:33:49.627Z,2.22
2023-04-06T09:35:54.959Z,1.70
2023-04-06T09:38:12.672Z,2.00
2023-04-06T09:40:20.357Z,1.35
2023-04-06T09:42:27.426Z,1.65
2023-04-06T09:44:29.333Z,1.80
2023-04-06T09:46:46.367Z,1.92
2023-04-06T09:48:54.086Z,1.30
2023-04-06T09:51:06.632Z,1.30
2023-04-06T09:53:09.220Z,1.08
2023-04-06T09:55:11.567Z,1.00
2023-04-06T09:57:19.707Z,1.60
2023-04-06T09:59:31.902Z,1.45
2023-04-06T10:01:35.208Z,1.33
2023-04-06T10:03:51.109Z,1.25
2023-04-06T10:05:59.789Z,1.00
2023-04-06T10:08:10.257Z,1.33
2023-04-06T10:10:14.400Z,0.70
2023-04-06T10:12:17.077Z,0.95
2023-04-06T10:14:19.567Z,0.85
2023-04-06T10:16:22.619Z,0.90
2023-04-06T10:18:24.856Z,0.80
2023-04-06T10:20:48.864Z,0.93
2023-04-06T10:23:06.893Z,1.60
2023-04-06T10:25:10.562Z,0.77
2023-04-06T10:27:12.485Z,0.65
2023-04-06T10:29:14.387Z,0.57
2023-04-06T10:31:17.321Z,0.88
2023-04-06T10:33:21.730Z,0.90
2023-04-06T10:35:25.163Z,0.90
2023-04-06T10:37:27.310Z,1.85
2023-04-06T10:39:29.351Z,0.73
2023-04-06T10:41:39.656Z,0.90
2023-04-06T10:43:42.930Z,0.50
2023-04-06T10:45:45.526Z,0.90
2023-04-06T10:47:47.852Z,0.77
2023-04-06T10:49:50.041Z,0.80
2023-04-06T10:51:56.089Z,0.82
2023-04-06T10:53:59.384Z,0.93
2023-04-06T10:56:02.132Z,0.98
2023-04-06T10:58:11.154Z,0.98
2023-04-06T11:00:13.959Z,0.70
2023-04-06T11:02:23.826Z,1.17
2023-04-06T11:04:26.680Z,0.90
2023-04-06T11:06:31.773Z,0.70
2023-04-06T11:08:34.624Z,0.70
2023-04-06T11:10:37.482Z,0.80
2023-04-06T11:12:39.549Z,1.17
2023-04-06T11:14:43.430Z,1.08
2023-04-06T11:16:51.169Z,0.88
2023-04-06T11:19:03.434Z,0.80
2023-04-06T11:21:06.752Z,1.20
2023-04-06T11:23:09.474Z,0.77
2023-04-06T11:25:11.811Z,0.93
2023-04-06T11:27:16.166Z,1.40
2023-04-06T11:29:21.321Z,0.70
2023-04-06T11:31:29.780Z,0.65
2023-04-06T11:33:37.632Z,0.70
2023-04-06T11:35:39.780Z,0.40
2023-04-06T11:37:47.301Z,0.57
2023-04-06T11:39:52.547Z,0.50
2023-04-06T11:42:05.568Z,0.47
2023-04-06T11:44:09.151Z,0.40
2023-04-06T11:46:12.028Z,0.50
2023-04-06T11:48:26.445Z,0.40
2023-04-06T11:50:36.233Z,0.68
2023-04-06T11:52:40.004Z,0.55
2023-04-06T11:54:42.504Z,0.50
2023-04-06T11:56:48.038Z,0.70
2023-04-06T11:58:50.257Z,0.50
2023-04-06T12:00:52.333Z,0.82
2023-04-06T12:02:54.261Z,0.57
2023-04-06T12:04:56.405Z,0.95
2023-04-06T12:07:02.989Z,1.08
2023-04-06T12:09:06.167Z,0.50
2023-04-06T12:11:09.450Z,0.47
2023-04-06T12:13:11.452Z,0.30
2023-04-06T12:15:13.335Z,0.30
2023-04-06T12:17:15.802Z,0.60
2023-04-06T12:19:18.212Z,0.43
2023-04-06T12:21:20.129Z,0.22
2023-04-06T12:23:22.094Z,0.30
2023-04-06T12:25:24.069Z,0.20
2023-04-06T12:27:26.173Z,0.30
2023-04-06T12:29:28.187Z,0.20
2023-04-06T12:31:31.034Z,0.50
2023-04-06T12:33:33.760Z,0.47
2023-04-06T12:35:36.334Z,0.30
2023-04-06T12:37:38.447Z,0.10
2023-04-06T12:39:40.735Z,0.30
2023-04-06T12:41:42.647Z,0.30
2023-04-06T12:43:46.234Z,0.73
2023-04-06T12:45:48.267Z,0.50
2023-04-06T12:47:50.583Z,0.30
2023-04-06T12:49:52.677Z,0.30
2023-04-06T12:51:54.736Z,0.30
2023-04-06T12:53:56.802Z,0.30
2023-04-06T12:56:00.195Z,0.50
2023-04-06T12:58:21.166Z,0.47
2023-04-06T13:00:23.761Z,0.30
2023-04-06T13:02:33.059Z,0.50
2023-04-06T13:04:34.934Z,0.60
2023-04-06T13:06:37.029Z,0.28
2023-04-06T13:08:40.374Z,0.30
2023-04-06T13:10:50.598Z,0.20
2023-04-06T13:12:55.619Z,0.40
2023-04-06T13:14:58.288Z,0.30
2023-04-06T13:17:00.906Z,0.32
2023-04-06T13:19:03.799Z,0.30
2023-04-06T13:21:07.403Z,0.52
2023-04-06T13:23:09.688Z,0.20
2023-04-06T13:25:11.784Z,0.70
2023-04-06T13:27:13.938Z,0.32
2023-04-06T13:29:16.171Z,0.22
2023-04-06T13:31:20.529Z,0.63
2023-04-06T13:33:23.946Z,0.28
2023-04-06T13:35:26.199Z,0.20
2023-04-06T13:37:28.214Z,0.20
2023-04-06T13:39:31.023Z,0.25
2023-04-06T13:41:32.965Z,0.30
2023-04-06T13:43:34.941Z,0.40
2023-04-06T13:45:38.894Z,0.35
2023-04-06T13:47:41.055Z,0.40
2023-04-06T13:49:43.215Z,0.40
2023-04-06T13:51:45.295Z,0.30
2023-04-06T13:53:47.479Z,0.28
2023-04-06T13:56:00.238Z,0.30
2023-04-06T13:58:04.794Z,0.40
2023-04-06T14:00:08.356Z,0.30
2023-04-06T14:02:12.326Z,0.30
2023-04-06T14:04:24.222Z,0.20
2023-04-06T14:06:31.742Z,0.20
2023-04-06T14:08:44.673Z,0.17
2023-04-06T14:10:57.555Z,0.10
2023-04-06T14:12:59.528Z,0.20
2023-04-06T14:15:04.395Z,0.25
2023-04-06T14:17:16.112Z,0.35
2023-04-06T14:19:20.869Z,0.20
2023-04-06T14:21:22.836Z,0.25
2023-04-06T14:23:29.005Z,0.20
2023-04-06T14:25:35.064Z,0.68
2023-04-06T14:27:37.028Z,0.20
2023-04-06T14:29:39.247Z,0.20
2023-04-06T14:31:42.555Z,0.47
2023-04-06T14:33:44.889Z,0.38
2023-04-06T14:35:51.524Z,0.25
2023-04-06T14:37:54.329Z,0.50
2023-04-06T14:39:56.516Z,0.30
2023-04-06T14:41:59.198Z,0.40
2023-04-06T14:44:02.093Z,0.30
2023-04-06T14:46:09.919Z,0.30
2023-04-06T14:48:19.404Z,0.30
2023-04-06T14:50:21.582Z,0.30
2023-04-06T14:52:23.726Z,0.45
2023-04-06T14:54:26.121Z,0.35
2023-04-06T14:56:34.517Z,0.40
2023-04-06T14:58:36.662Z,0.20
2023-04-06T15:00:40.209Z,0.40
2023-04-06T15:02:44.601Z,0.20
2023-04-06T15:04:47.134Z,0.20
2023-04-06T15:06:49.068Z,0.50
2023-04-06T15:08:58.145Z,0.38
2023-04-06T15:11:02.269Z,0.30
2023-04-06T15:13:10.582Z,0.38
2023-04-06T15:15:12.449Z,0.35
2023-04-06T15:17:17.249Z,0.32
2023-04-06T15:19:24.452Z,0.40
2023-04-06T15:21:36.467Z,0.40
2023-04-06T15:23:38.739Z,0.50
2023-04-06T15:25:42.567Z,0.50
2023-04-06T15:27:44.732Z,0.68
2023-04-06T15:29:47.110Z,0.30
2023-04-06T15:31:49.210Z,0.25
2023-04-06T15:34:07.010Z,0.75
2023-04-06T15:36:29.757Z,0.20
2023-04-06T15:38:32.104Z,0.30
2023-04-06T15:40:39.394Z,0.50
2023-04-06T15:42:43.420Z,0.32
2023-04-06T15:44:48.527Z,0.20
2023-04-06T15:46:53.423Z,0.25
2023-04-06T15:49:28.177Z,0.40
2023-04-06T15:51:35.292Z,0.10
2023-04-06T15:53:55.157Z,0.30
2023-04-06T15:56:04.448Z,0.20
2023-04-06T15:58:09.374Z,0.20
2023-04-06T16:00:12.194Z,0.28
2023-04-06T16:02:14.307Z,0.30
2023-04-06T16:04:17.936Z,0.20
2023-04-06T16:06:20.233Z,0.55
2023-04-06T16:08:27.067Z,0.20
2023-04-06T16:10:29.216Z,0.20
2023-04-06T16:12:34.576Z,0.40
2023-04-06T16:14:39.792Z,0.30
2023-04-06T16:16:45.481Z,0.20
2023-04-06T16:18:47.809Z,0.30
2023-04-06T16:20:50.184Z,0.40
2023-04-06T16:22:52.281Z,0.40
2023-04-06T16:24:55.167Z,0.28
2023-04-06T16:27:01.179Z,0.30
2023-04-06T16:29:03.566Z,0.50
2023-04-06T16:31:06.833Z,0.40
2023-04-06T16:33:09.619Z,0.47
2023-04-06T16:35:12.272Z,1.25
2023-04-06T16:37:14.341Z,0.40
2023-04-06T16:39:17.450Z,0.60
2023-04-06T16:41:19.715Z,0.55
2023-04-06T16:43:21.987Z,0.43
2023-04-06T16:45:27.114Z,0.52
2023-04-06T16:47:31.811Z,0.75
2023-04-06T16:49:36.373Z,0.43
2023-04-06T16:51:41.429Z,0.40
2023-04-06T16:53:50.388Z,0.30
2023-04-06T16:56:01.294Z,0.63
2023-04-06T16:58:12.453Z,0.55
2023-04-06T17:00:26.563Z,0.43
2023-04-06T17:02:30.217Z,0.70
2023-04-06T17:04:34.097Z,0.50
2023-04-06T17:06:36.495Z,0.57
2023-04-06T17:08:38.573Z,0.40
2023-04-06T17:10:41.902Z,0.50
2023-04-06T17:12:50.103Z,0.40
2023-04-06T17:14:52.427Z,0.57
2023-04-06T17:16:57.047Z,0.60
2023-04-06T17:19:01.675Z,0.40
2023-04-06T17:21:08.229Z,0.63
2023-04-06T17:23:10.524Z,0.75
2023-04-06T17:25:13.019Z,1.10
2023-04-06T17:27:15.697Z,0.40
2023-04-06T17:29:18.791Z,0.50
2023-04-06T17:31:21.746Z,1.13
2023-04-06T17:33:26.377Z,0.77
2023-04-06T17:35:35.489Z,0.57
2023-04-06T17:37:58.667Z,0.50
2023-04-06T17:40:00.935Z,0.80
2023-04-06T17:42:06.182Z,0.90
2023-04-06T17:44:08.226Z,0.75
2023-04-06T17:46:10.462Z,0.57
2023-04-06T17:48:21.155Z,0.70
2023-04-06T17:50:23.823Z,1.35
2023-04-06T17:52:27.602Z,0.90
2023-04-06T17:54:29.612Z,1.17
2023-04-06T17:56:31.684Z,0.98
2023-04-06T17:58:36.750Z,0.80
2023-04-06T18:00:39.000Z,0.57
2023-04-06T18:02:44.199Z,0.60
2023-04-06T18:04:46.747Z,0.52
2023-04-06T18:06:48.947Z,0.85
2023-04-06T18:08:51.558Z,0.60
2023-04-06T18:10:53.624Z,0.68
2023-04-06T18:12:56.027Z,0.60
2023-04-06T18:14:58.056Z,1.25
2023-04-06T18:17:00.821Z,0.65
2023-04-06T18:19:04.630Z,0.70
2023-04-06T18:21:07.209Z,0.60
2023-04-06T18:23:15.315Z,0.50
2023-04-06T18:25:17.467Z,0.60
2023-04-06T18:27:29.929Z,0.80
2023-04-06T18:29:31.960Z,0.80
2023-04-06T18:33:41.873Z,0.98
2023-04-06T18:35:43.838Z,0.70
2023-04-06T18:37:45.751Z,1.02
2023-04-06T18:39:47.967Z,0.75
2023-04-06T18:41:49.933Z,0.80
2023-04-06T18:43:51.827Z,1.10
2023-04-06T18:45:53.815Z,1.10
2023-04-06T18:48:00.535Z,1.40
2023-04-06T18:50:02.696Z,1.70
2023-04-06T18:52:06.874Z,1.45
2023-04-06T18:54:09.276Z,1.35
2023-04-06T18:56:20.544Z,1.27
2023-04-06T18:58:26.210Z,1.63
2023-04-06T19:00:28.053Z,1.35
2023-04-06T19:02:30.314Z,1.33
2023-04-06T19:04:32.451Z,1.73
2023-04-06T19:06:34.390Z,1.92
2023-04-06T19:08:36.344Z,1.90
2023-04-06T19:10:38.782Z,1.13
2023-04-06T19:12:40.591Z,1.10
2023-04-06T19:14:43.369Z,1.58
2023-04-06T19:16:52.359Z,1.58
2023-04-06T19:18:54.594Z,1.58
2023-04-06T19:20:56.341Z,1.88
2023-04-06T19:22:58.148Z,1.50
2023-04-06T19:25:00.035Z,1.77
2023-04-06T19:27:02.742Z,1.58
2023-04-06T19:29:04.789Z,1.80
2023-04-06T19:31:08.694Z,2.05
2023-04-06T19:33:10.611Z,1.48
2023-04-06T19:35:12.519Z,1.48
2023-04-06T19:37:14.319Z,1.48
2023-04-06T19:39:18.170Z,1.20
2023-04-06T19:41:20.142Z,1.20
2023-04-06T19:43:22.040Z,0.95
2023-04-06T19:45:26.321Z,1.10
2023-04-06T19:47:28.412Z,1.05
2023-04-06T19:49:30.452Z,1.67
2023-04-06T19:51:33.715Z,1.10
2023-04-06T19:53:36.093Z,1.20
2023-04-06T19:55:38.180Z,1.80
2023-04-06T19:57:39.938Z,0.93
2023-04-06T19:59:42.311Z,1.38
2023-04-06T20:01:45.559Z,1.25
2023-04-06T20:03:50.025Z,1.30
2023-04-06T20:05:51.987Z,1.60
2023-04-06T20:07:58.703Z,1.23
2023-04-06T20:10:02.295Z,1.42
2023-04-06T20:12:04.355Z,1.58
2023-04-06T20:14:06.143Z,1.70
2023-04-06T20:16:07.998Z,1.45
2023-04-06T20:18:09.900Z,1.20
2023-04-06T20:20:12.074Z,1.13
2023-04-06T20:22:14.190Z,1.27
2023-04-06T20:24:16.206Z,1.40
2023-04-06T20:26:18.163Z,1.48
2023-04-06T20:28:20.460Z,1.45
2023-04-06T20:30:22.887Z,1.20
2023-04-06T20:32:25.092Z,1.30
2023-04-06T20:34:29.006Z,1.10
2023-04-06T20:36:32.692Z,1.15
2023-04-06T20:38:34.883Z,1.75
2023-04-06T20:40:37.165Z,1.77
2023-04-06T20:42:39.366Z,1.27
2023-04-06T20:44:41.431Z,1.30
2023-04-06T20:46:43.478Z,1.33
2023-04-06T20:48:45.511Z,1.23
2023-04-06T20:50:47.318Z,2.15
2023-04-06T20:52:49.757Z,1.50
2023-04-06T20:54:52.258Z,1.48
2023-04-06T20:56:54.117Z,1.40
2023-04-06T20:58:58.549Z,1.40
2023-04-06T21:01:00.599Z,1.45
2023-04-06T21:03:02.747Z,1.90
2023-04-06T21:05:05.114Z,1.67
2023-04-06T21:07:07.420Z,1.90
2023-04-06T21:09:09.183Z,1.52
2023-04-06T21:11:11.153Z,1.67
2023-04-06T21:13:12.888Z,1.75
2023-04-06T21:15:14.706Z,1.50
2023-04-06T21:17:16.525Z,1.60
2023-04-06T21:19:18.394Z,1.50
2023-04-06T21:21:20.280Z,1.60
2023-04-06T21:23:23.135Z,1.20
2023-04-06T21:25:25.057Z,1.45
2023-04-06T21:27:26.872Z,1.45
2023-04-06T21:29:28.774Z,1.10
2023-04-06T21:31:30.961Z,1.85
2023-04-06T21:33:32.803Z,1.40
2023-04-06T21:35:38.647Z,1.35
2023-04-06T21:37:40.502Z,1.08
2023-04-06T21:39:42.212Z,1.42
2023-04-06T21:41:44.061Z,1.02
2023-04-06T21:43:45.905Z,1.27
2023-04-06T21:45:51.448Z,1.17
2023-04-06T21:47:53.416Z,1.00
2023-04-06T21:49:55.272Z,1.48
2023-04-06T21:51:59.580Z,0.90
2023-04-06T21:54:02.054Z,0.98
2023-04-06T21:56:04.089Z,1.40
2023-04-06T21:58:07.636Z,1.10
2023-04-06T22:00:10.298Z,0.90
2023-04-06T22:02:12.152Z,0.90
2023-04-06T22:04:14.341Z,0.93
2023-04-06T22:06:16.590Z,1.17
2023-04-06T22:08:32.715Z,1.00
2023-04-06T22:10:35.804Z,0.60
2023-04-06T22:12:37.863Z,1.25
2023-04-06T22:14:39.617Z,0.70
2023-04-06T22:16:41.557Z,1.10
2023-04-06T22:18:43.424Z,0.80
2023-04-06T22:20:45.913Z,0.85
2023-04-06T22:22:47.786Z,1.17
2023-04-06T22:24:49.592Z,1.13
2023-04-06T22:26:51.586Z,1.40
2023-04-06T22:28:53.511Z,0.65
2023-04-06T22:30:55.344Z,0.70
2023-04-06T22:32:57.304Z,0.90
2023-04-06T22:34:59.056Z,0.73
2023-04-06T22:37:01.149Z,0.55
2023-04-06T22:39:02.971Z,0.73
2023-04-06T22:41:06.589Z,0.93
2023-04-06T22:43:09.094Z,0.80
2023-04-06T22:45:11.516Z,0.60
2023-04-06T22:47:13.403Z,0.60
2023-04-06T22:49:15.659Z,0.70
2023-04-06T22:51:17.412Z,0.70
2023-04-06T22:53:19.316Z,0.73
2023-04-06T22:55:21.384Z,0.63
2023-04-06T22:57:23.129Z,0.63
2023-04-06T22:59:25.021Z,0.90
2023-04-06T23:01:27.114Z,0.77
2023-04-06T23:03:28.970Z,0.50
2023-04-06T23:05:30.903Z,0.77
2023-04-06T23:07:32.933Z,0.65
2023-04-06T23:09:34.712Z,0.50
2023-04-06T23:11:36.429Z,0.90
2023-04-06T23:13:38.334Z,0.50
2023-04-06T23:15:40.083Z,0.93
2023-04-06T23:17:41.959Z,0.60
2023-04-06T23:19:43.720Z,0.90
2023-04-06T23:21:45.504Z,0.60
2023-04-06T23:23:47.295Z,0.60
2023-04-06T23:25:49.099Z,0.80
2023-04-06T23:27:52.407Z,0.70
2023-04-06T23:29:54.385Z,0.47
2023-04-06T23:31:56.183Z,0.55
2023-04-06T23:33:58.071Z,0.50
2023-04-06T23:35:59.769Z,0.50
2023-04-06T23:38:01.527Z,0.65
2023-04-06T23:40:04.589Z,0.57
2023-04-06T23:42:06.479Z,0.45
2023-04-06T23:44:08.228Z,0.70
2023-04-06T23:46:10.177Z,0.80
2023-04-06T23:48:11.994Z,1.05
2023-04-06T23:50:13.918Z,0.77
2023-04-06T23:52:15.642Z,0.70
2023-04-06T23:54:17.443Z,1.55
2023-04-06T23:56:19.175Z,0.75
2023-04-06T23:58:21.301Z,0.90
